sensor_id;sensor_type;location;lat;lon;timestamp;P1;durP1;ratioP1;P2;durP2;ratioP2
55090;SDS011;40985;53.180;5.800;2023-02-24T00:01:52;10.60;;;0.30;;
55090;SDS011;40985;53.180;5.800;2023-02-24T00:04:29;5.07;;;0.40;;
55090;SDS011;40985;53.180;5.800;2023-02-24T00:06:57;5.32;;;0.50;;
55090;SDS011;40985;53.180;5.800;2023-02-24T00:09:24;6.90;;;0.30;;
55090;SDS011;40985;53.180;5.800;2023-02-24T00:11:58;6.53;;;0.30;;
55090;SDS011;40985;53.180;5.800;2023-02-24T00:14:27;7.75;;;0.22;;
55090;SDS011;40985;53.180;5.800;2023-02-24T00:16:56;6.45;;;0.20;;
55090;SDS011;40985;53.180;5.800;2023-02-24T00:19:23;6.10;;;0.40;;
55090;SDS011;40985;53.180;5.800;2023-02-24T00:21:50;6.32;;;0.20;;
55090;SDS011;40985;53.180;5.800;2023-02-24T00:24:16;4.75;;;0.20;;
55090;SDS011;40985;53.180;5.800;2023-02-24T00:26:42;3.10;;;0.20;;
55090;SDS011;40985;53.180;5.800;2023-02-24T00:29:10;5.05;;;0.77;;
55090;SDS011;40985;53.180;5.800;2023-02-24T00:31:37;2.58;;;0.40;;
55090;SDS011;40985;53.180;5.800;2023-02-24T00:34:06;12.15;;;0.60;;
55090;SDS011;40985;53.180;5.800;2023-02-24T00:36:33;5.07;;;0.25;;
55090;SDS011;40985;53.180;5.800;2023-02-24T00:39:00;8.25;;;0.30;;
55090;SDS011;40985;53.180;5.800;2023-02-24T00:41:33;8.95;;;0.22;;
55090;SDS011;40985;53.180;5.800;2023-02-24T00:44:00;4.88;;;0.77;;
55090;SDS011;40985;53.180;5.800;2023-02-24T00:46:34;6.68;;;0.30;;
55090;SDS011;40985;53.180;5.800;2023-02-24T00:49:05;6.93;;;0.40;;
55090;SDS011;40985;53.180;5.800;2023-02-24T00:51:35;3.13;;;0.20;;
55090;SDS011;40985;53.180;5.800;2023-02-24T00:54:02;6.70;;;0.20;;
55090;SDS011;40985;53.180;5.800;2023-02-24T00:56:28;7.95;;;0.43;;
55090;SDS011;40985;53.180;5.800;2023-02-24T00:58:55;6.22;;;0.30;;
55090;SDS011;40985;53.180;5.800;2023-02-24T01:01:23;8.15;;;0.38;;
55090;SDS011;40985;53.180;5.800;2023-02-24T01:03:52;6.70;;;0.20;;
55090;SDS011;40985;53.180;5.800;2023-02-24T01:06:19;4.93;;;0.28;;
55090;SDS011;40985;53.180;5.800;2023-02-24T01:08:46;4.20;;;0.17;;
55090;SDS011;40985;53.180;5.800;2023-02-24T01:11:14;6.38;;;0.32;;
55090;SDS011;40985;53.180;5.800;2023-02-24T01:14:09;5.50;;;0.20;;
55090;SDS011;40985;53.180;5.800;2023-02-24T01:16:37;8.57;;;0.22;;
55090;SDS011;40985;53.180;5.800;2023-02-24T01:19:05;5.20;;;0.20;;
55090;SDS011;40985;53.180;5.800;2023-02-24T01:21:32;8.07;;;0.30;;
55090;SDS011;40985;53.180;5.800;2023-02-24T01:23:58;8.63;;;0.45;;
55090;SDS011;40985;53.180;5.800;2023-02-24T01:26:24;6.13;;;0.32;;
55090;SDS011;40985;53.180;5.800;2023-02-24T01:28:50;10.43;;;0.70;;
55090;SDS011;40985;53.180;5.800;2023-02-24T01:31:18;4.07;;;0.40;;
55090;SDS011;40985;53.180;5.800;2023-02-24T01:33:47;6.85;;;0.22;;
55090;SDS011;40985;53.180;5.800;2023-02-24T01:36:20;5.57;;;0.20;;
55090;SDS011;40985;53.180;5.800;2023-02-24T01:38:49;3.33;;;0.50;;
55090;SDS011;40985;53.180;5.800;2023-02-24T01:41:17;6.43;;;0.30;;
55090;SDS011;40985;53.180;5.800;2023-02-24T01:46:38;7.22;;;0.30;;
55090;SDS011;40985;53.180;5.800;2023-02-24T01:54:28;9.15;;;1.30;;
55090;SDS011;40985;53.180;5.800;2023-02-24T01:57:03;4.28;;;0.40;;
55090;SDS011;40985;53.180;5.800;2023-02-24T01:59:30;9.57;;;0.38;;
55090;SDS011;40985;53.180;5.800;2023-02-24T02:02:00;14.82;;;0.63;;
55090;SDS011;40985;53.180;5.800;2023-02-24T02:07:21;8.00;;;1.20;;
55090;SDS011;40985;53.180;5.800;2023-02-24T02:09:49;5.43;;;0.30;;
55090;SDS011;40985;53.180;5.800;2023-02-24T02:12:17;3.95;;;0.20;;
55090;SDS011;40985;53.180;5.800;2023-02-24T02:14:47;5.70;;;0.30;;
55090;SDS011;40985;53.180;5.800;2023-02-24T02:42:29;10.30;;;0.55;;
55090;SDS011;40985;53.180;5.800;2023-02-24T02:45:09;7.85;;;0.40;;
55090;SDS011;40985;53.180;5.800;2023-02-24T02:53:13;14.15;;;0.50;;
55090;SDS011;40985;53.180;5.800;2023-02-24T02:58:54;12.00;;;1.63;;
55090;SDS011;40985;53.180;5.800;2023-02-24T03:01:23;6.40;;;0.63;;
55090;SDS011;40985;53.180;5.800;2023-02-24T03:03:53;8.90;;;0.73;;
55090;SDS011;40985;53.180;5.800;2023-02-24T03:06:26;8.85;;;0.52;;
55090;SDS011;40985;53.180;5.800;2023-02-24T03:11:39;7.57;;;1.65;;
55090;SDS011;40985;53.180;5.800;2023-02-24T03:14:12;10.88;;;0.40;;
55090;SDS011;40985;53.180;5.800;2023-02-24T03:16:40;4.75;;;1.25;;
55090;SDS011;40985;53.180;5.800;2023-02-24T03:19:10;3.78;;;0.40;;
55090;SDS011;40985;53.180;5.800;2023-02-24T03:21:39;4.95;;;0.57;;
55090;SDS011;40985;53.180;5.800;2023-02-24T03:24:11;5.97;;;0.25;;
55090;SDS011;40985;53.180;5.800;2023-02-24T03:26:40;9.23;;;0.30;;
55090;SDS011;40985;53.180;5.800;2023-02-24T03:32:08;6.38;;;0.45;;
55090;SDS011;40985;53.180;5.800;2023-02-24T03:34:42;6.65;;;0.40;;
55090;SDS011;40985;53.180;5.800;2023-02-24T03:37:29;9.80;;;0.32;;
55090;SDS011;40985;53.180;5.800;2023-02-24T03:39:58;4.80;;;0.57;;
55090;SDS011;40985;53.180;5.800;2023-02-24T03:42:31;12.93;;;0.40;;
55090;SDS011;40985;53.180;5.800;2023-02-24T03:44:58;12.60;;;0.75;;
55090;SDS011;40985;53.180;5.800;2023-02-24T03:47:25;6.80;;;0.70;;
55090;SDS011;40985;53.180;5.800;2023-02-24T03:49:51;14.82;;;0.60;;
55090;SDS011;40985;53.180;5.800;2023-02-24T03:57:56;9.38;;;0.77;;
55090;SDS011;40985;53.180;5.800;2023-02-24T04:00:53;8.48;;;0.70;;
55090;SDS011;40985;53.180;5.800;2023-02-24T04:11:27;10.35;;;0.75;;
55090;SDS011;40985;53.180;5.800;2023-02-24T04:14:08;9.35;;;0.75;;
55090;SDS011;40985;53.180;5.800;2023-02-24T04:16:54;10.90;;;0.80;;
55090;SDS011;40985;53.180;5.800;2023-02-24T04:19:35;6.78;;;0.40;;
55090;SDS011;40985;53.180;5.800;2023-02-24T04:22:07;9.98;;;0.60;;
55090;SDS011;40985;53.180;5.800;2023-02-24T04:24:37;6.13;;;0.28;;
55090;SDS011;40985;53.180;5.800;2023-02-24T04:27:05;6.75;;;0.25;;
55090;SDS011;40985;53.180;5.800;2023-02-24T04:29:37;16.60;;;1.00;;
55090;SDS011;40985;53.180;5.800;2023-02-24T04:32:11;7.40;;;1.42;;
55090;SDS011;40985;53.180;5.800;2023-02-24T04:34:39;10.40;;;0.98;;
55090;SDS011;40985;53.180;5.800;2023-02-24T04:37:06;13.70;;;1.23;;
55090;SDS011;40985;53.180;5.800;2023-02-24T04:39:32;14.32;;;1.08;;
55090;SDS011;40985;53.180;5.800;2023-02-24T04:42:06;8.15;;;0.55;;
55090;SDS011;40985;53.180;5.800;2023-02-24T04:44:32;10.68;;;0.82;;
55090;SDS011;40985;53.180;5.800;2023-02-24T04:46:58;9.27;;;0.70;;
55090;SDS011;40985;53.180;5.800;2023-02-24T04:49:24;10.23;;;0.63;;
55090;SDS011;40985;53.180;5.800;2023-02-24T04:51:51;12.10;;;1.05;;
55090;SDS011;40985;53.180;5.800;2023-02-24T04:54:18;11.65;;;1.80;;
55090;SDS011;40985;53.180;5.800;2023-02-24T04:56:47;10.25;;;0.73;;
55090;SDS011;40985;53.180;5.800;2023-02-24T04:59:16;8.35;;;0.70;;
55090;SDS011;40985;53.180;5.800;2023-02-24T05:01:43;6.75;;;0.80;;
55090;SDS011;40985;53.180;5.800;2023-02-24T05:04:10;17.88;;;1.00;;
55090;SDS011;40985;53.180;5.800;2023-02-24T05:06:38;16.23;;;1.60;;
55090;SDS011;40985;53.180;5.800;2023-02-24T05:09:08;14.73;;;1.63;;
55090;SDS011;40985;53.180;5.800;2023-02-24T05:11:41;17.08;;;1.15;;
55090;SDS011;40985;53.180;5.800;2023-02-24T05:14:12;12.43;;;0.90;;
55090;SDS011;40985;53.180;5.800;2023-02-24T05:16:39;17.38;;;1.42;;
55090;SDS011;40985;53.180;5.800;2023-02-24T05:19:10;18.73;;;1.38;;
55090;SDS011;40985;53.180;5.800;2023-02-24T05:22:02;12.57;;;1.55;;
55090;SDS011;40985;53.180;5.800;2023-02-24T05:24:29;14.07;;;1.52;;
55090;SDS011;40985;53.180;5.800;2023-02-24T05:26:56;20.40;;;1.83;;
55090;SDS011;40985;53.180;5.800;2023-02-24T05:29:26;12.45;;;1.30;;
55090;SDS011;40985;53.180;5.800;2023-02-24T05:31:54;17.48;;;1.52;;
55090;SDS011;40985;53.180;5.800;2023-02-24T05:34:23;20.10;;;0.98;;
55090;SDS011;40985;53.180;5.800;2023-02-24T05:36:54;11.80;;;0.98;;
55090;SDS011;40985;53.180;5.800;2023-02-24T05:39:22;15.38;;;1.88;;
55090;SDS011;40985;53.180;5.800;2023-02-24T05:41:51;14.77;;;1.63;;
55090;SDS011;40985;53.180;5.800;2023-02-24T05:44:19;14.30;;;2.00;;
55090;SDS011;40985;53.180;5.800;2023-02-24T05:46:52;19.10;;;1.58;;
55090;SDS011;40985;53.180;5.800;2023-02-24T05:49:27;24.40;;;3.05;;
55090;SDS011;40985;53.180;5.800;2023-02-24T05:51:57;11.13;;;1.90;;
55090;SDS011;40985;53.180;5.800;2023-02-24T05:54:33;18.25;;;2.90;;
55090;SDS011;40985;53.180;5.800;2023-02-24T05:57:03;15.02;;;2.05;;
55090;SDS011;40985;53.180;5.800;2023-02-24T05:59:31;21.88;;;2.70;;
55090;SDS011;40985;53.180;5.800;2023-02-24T06:01:58;24.85;;;3.65;;
55090;SDS011;40985;53.180;5.800;2023-02-24T06:04:26;20.27;;;3.03;;
55090;SDS011;40985;53.180;5.800;2023-02-24T06:07:13;22.60;;;2.38;;
55090;SDS011;40985;53.180;5.800;2023-02-24T06:09:44;15.80;;;1.15;;
55090;SDS011;40985;53.180;5.800;2023-02-24T06:12:14;17.15;;;2.22;;
55090;SDS011;40985;53.180;5.800;2023-02-24T06:14:40;20.02;;;3.25;;
55090;SDS011;40985;53.180;5.800;2023-02-24T06:17:06;10.68;;;1.63;;
55090;SDS011;40985;53.180;5.800;2023-02-24T06:19:32;20.15;;;2.55;;
55090;SDS011;40985;53.180;5.800;2023-02-24T06:21:59;23.98;;;2.75;;
55090;SDS011;40985;53.180;5.800;2023-02-24T06:24:26;26.05;;;3.05;;
55090;SDS011;40985;53.180;5.800;2023-02-24T06:26:56;19.75;;;1.83;;
55090;SDS011;40985;53.180;5.800;2023-02-24T06:29:34;24.17;;;2.50;;
55090;SDS011;40985;53.180;5.800;2023-02-24T06:32:01;16.08;;;1.50;;
55090;SDS011;40985;53.180;5.800;2023-02-24T06:34:41;17.48;;;2.13;;
55090;SDS011;40985;53.180;5.800;2023-02-24T06:37:08;22.73;;;2.30;;
55090;SDS011;40985;53.180;5.800;2023-02-24T06:39:37;23.77;;;2.20;;
55090;SDS011;40985;53.180;5.800;2023-02-24T06:42:03;17.20;;;2.42;;
55090;SDS011;40985;53.180;5.800;2023-02-24T06:44:30;25.73;;;1.92;;
55090;SDS011;40985;53.180;5.800;2023-02-24T06:46:56;22.80;;;2.60;;
55090;SDS011;40985;53.180;5.800;2023-02-24T06:49:23;17.98;;;1.65;;
55090;SDS011;40985;53.180;5.800;2023-02-24T06:51:49;19.98;;;2.58;;
55090;SDS011;40985;53.180;5.800;2023-02-24T06:54:15;21.80;;;2.53;;
55090;SDS011;40985;53.180;5.800;2023-02-24T06:56:41;16.80;;;1.10;;
55090;SDS011;40985;53.180;5.800;2023-02-24T06:59:06;23.92;;;1.42;;
55090;SDS011;40985;53.180;5.800;2023-02-24T07:01:37;21.73;;;2.95;;
55090;SDS011;40985;53.180;5.800;2023-02-24T07:04:12;17.42;;;1.80;;
55090;SDS011;40985;53.180;5.800;2023-02-24T07:06:39;27.60;;;2.70;;
55090;SDS011;40985;53.180;5.800;2023-02-24T07:09:08;23.95;;;2.75;;
55090;SDS011;40985;53.180;5.800;2023-02-24T07:11:36;24.00;;;3.13;;
55090;SDS011;40985;53.180;5.800;2023-02-24T07:14:01;22.92;;;2.35;;
55090;SDS011;40985;53.180;5.800;2023-02-24T07:16:30;19.15;;;2.25;;
55090;SDS011;40985;53.180;5.800;2023-02-24T07:18:58;22.48;;;1.90;;
55090;SDS011;40985;53.180;5.800;2023-02-24T07:21:27;21.52;;;2.20;;
55090;SDS011;40985;53.180;5.800;2023-02-24T07:24:03;26.63;;;2.75;;
55090;SDS011;40985;53.180;5.800;2023-02-24T07:26:30;32.40;;;3.72;;
55090;SDS011;40985;53.180;5.800;2023-02-24T07:28:57;31.40;;;3.42;;
55090;SDS011;40985;53.180;5.800;2023-02-24T07:31:28;24.33;;;3.22;;
55090;SDS011;40985;53.180;5.800;2023-02-24T07:33:56;30.50;;;2.88;;
55090;SDS011;40985;53.180;5.800;2023-02-24T07:36:22;26.73;;;3.60;;
55090;SDS011;40985;53.180;5.800;2023-02-24T07:38:50;22.10;;;2.72;;
55090;SDS011;40985;53.180;5.800;2023-02-24T07:41:17;29.45;;;3.65;;
55090;SDS011;40985;53.180;5.800;2023-02-24T07:43:46;26.48;;;4.25;;
55090;SDS011;40985;53.180;5.800;2023-02-24T07:46:16;25.27;;;4.07;;
55090;SDS011;40985;53.180;5.800;2023-02-24T07:48:44;28.42;;;5.80;;
55090;SDS011;40985;53.180;5.800;2023-02-24T07:51:15;25.70;;;4.22;;
55090;SDS011;40985;53.180;5.800;2023-02-24T07:53:43;32.47;;;5.53;;
55090;SDS011;40985;53.180;5.800;2023-02-24T07:56:14;28.90;;;6.10;;
55090;SDS011;40985;53.180;5.800;2023-02-24T07:58:43;28.35;;;5.80;;
55090;SDS011;40985;53.180;5.800;2023-02-24T08:01:15;24.13;;;6.60;;
55090;SDS011;40985;53.180;5.800;2023-02-24T08:03:50;25.88;;;7.05;;
55090;SDS011;40985;53.180;5.800;2023-02-24T08:06:23;27.73;;;6.22;;
55090;SDS011;40985;53.180;5.800;2023-02-24T08:09:02;23.88;;;6.75;;
55090;SDS011;40985;53.180;5.800;2023-02-24T08:11:44;22.48;;;6.38;;
55090;SDS011;40985;53.180;5.800;2023-02-24T08:14:18;25.10;;;6.55;;
55090;SDS011;40985;53.180;5.800;2023-02-24T08:16:46;28.50;;;6.15;;
55090;SDS011;40985;53.180;5.800;2023-02-24T08:19:13;28.83;;;7.65;;
55090;SDS011;40985;53.180;5.800;2023-02-24T08:21:44;23.08;;;6.43;;
55090;SDS011;40985;53.180;5.800;2023-02-24T08:24:15;27.25;;;7.50;;
55090;SDS011;40985;53.180;5.800;2023-02-24T08:26:46;26.88;;;7.03;;
55090;SDS011;40985;53.180;5.800;2023-02-24T08:29:35;23.38;;;7.18;;
55090;SDS011;40985;53.180;5.800;2023-02-24T08:32:22;22.65;;;7.78;;
55090;SDS011;40985;53.180;5.800;2023-02-24T08:34:49;25.85;;;7.22;;
55090;SDS011;40985;53.180;5.800;2023-02-24T08:37:20;22.50;;;6.90;;
55090;SDS011;40985;53.180;5.800;2023-02-24T08:39:47;24.23;;;6.25;;
55090;SDS011;40985;53.180;5.800;2023-02-24T08:42:18;27.50;;;7.20;;
55090;SDS011;40985;53.180;5.800;2023-02-24T08:44:44;29.63;;;6.60;;
55090;SDS011;40985;53.180;5.800;2023-02-24T08:47:10;23.80;;;6.25;;
55090;SDS011;40985;53.180;5.800;2023-02-24T08:49:37;23.00;;;6.00;;
55090;SDS011;40985;53.180;5.800;2023-02-24T08:52:04;22.15;;;5.35;;
55090;SDS011;40985;53.180;5.800;2023-02-24T08:54:31;26.75;;;4.65;;
55090;SDS011;40985;53.180;5.800;2023-02-24T08:56:58;29.75;;;5.63;;
55090;SDS011;40985;53.180;5.800;2023-02-24T08:59:34;25.08;;;5.70;;
55090;SDS011;40985;53.180;5.800;2023-02-24T09:02:17;30.58;;;6.65;;
55090;SDS011;40985;53.180;5.800;2023-02-24T09:04:48;22.70;;;3.75;;
55090;SDS011;40985;53.180;5.800;2023-02-24T09:07:28;15.70;;;2.65;;
55090;SDS011;40985;53.180;5.800;2023-02-24T09:10:00;14.63;;;1.00;;
55090;SDS011;40985;53.180;5.800;2023-02-24T09:12:36;13.98;;;1.10;;
55090;SDS011;40985;53.180;5.800;2023-02-24T09:15:06;13.40;;;1.88;;
55090;SDS011;40985;53.180;5.800;2023-02-24T09:17:33;16.98;;;2.58;;
55090;SDS011;40985;53.180;5.800;2023-02-24T09:22:49;27.95;;;3.50;;
55090;SDS011;40985;53.180;5.800;2023-02-24T09:25:23;27.30;;;4.03;;
55090;SDS011;40985;53.180;5.800;2023-02-24T09:28:09;37.85;;;3.20;;
55090;SDS011;40985;53.180;5.800;2023-02-24T09:30:42;43.72;;;4.22;;
55090;SDS011;40985;53.180;5.800;2023-02-24T09:35:57;43.17;;;5.47;;
55090;SDS011;40985;53.180;5.800;2023-02-24T09:38:49;35.50;;;3.80;;
55090;SDS011;40985;53.180;5.800;2023-02-24T09:41:27;37.05;;;3.95;;
55090;SDS011;40985;53.180;5.800;2023-02-24T09:44:13;32.60;;;3.67;;
55090;SDS011;40985;53.180;5.800;2023-02-24T09:49:17;31.15;;;2.88;;
55090;SDS011;40985;53.180;5.800;2023-02-24T09:51:48;35.00;;;3.92;;
55090;SDS011;40985;53.180;5.800;2023-02-24T09:54:26;31.67;;;2.97;;
55090;SDS011;40985;53.180;5.800;2023-02-24T09:57:02;34.47;;;4.30;;
55090;SDS011;40985;53.180;5.800;2023-02-24T10:05:14;30.42;;;3.40;;
55090;SDS011;40985;53.180;5.800;2023-02-24T10:07:51;33.38;;;3.78;;
55090;SDS011;40985;53.180;5.800;2023-02-24T10:10:30;28.55;;;2.75;;
55090;SDS011;40985;53.180;5.800;2023-02-24T10:13:13;42.22;;;3.97;;
55090;SDS011;40985;53.180;5.800;2023-02-24T10:15:54;30.02;;;3.38;;
55090;SDS011;40985;53.180;5.800;2023-02-24T10:26:33;26.45;;;3.03;;
55090;SDS011;40985;53.180;5.800;2023-02-24T10:34:40;45.58;;;5.45;;
55090;SDS011;40985;53.180;5.800;2023-02-24T10:37:16;34.55;;;3.92;;
55090;SDS011;40985;53.180;5.800;2023-02-24T10:39:47;32.72;;;2.88;;
55090;SDS011;40985;53.180;5.800;2023-02-24T10:42:24;31.60;;;4.78;;
55090;SDS011;40985;53.180;5.800;2023-02-24T10:47:42;46.90;;;7.53;;
55090;SDS011;40985;53.180;5.800;2023-02-24T10:52:48;26.20;;;3.65;;
55090;SDS011;40985;53.180;5.800;2023-02-24T10:55:25;32.97;;;4.03;;
55090;SDS011;40985;53.180;5.800;2023-02-24T11:00:51;30.10;;;4.03;;
55090;SDS011;40985;53.180;5.800;2023-02-24T11:03:37;35.53;;;5.35;;
55090;SDS011;40985;53.180;5.800;2023-02-24T11:06:29;28.08;;;3.50;;
55090;SDS011;40985;53.180;5.800;2023-02-24T11:09:18;27.50;;;3.33;;
55090;SDS011;40985;53.180;5.800;2023-02-24T11:11:51;24.13;;;3.50;;
55090;SDS011;40985;53.180;5.800;2023-02-24T11:14:45;23.10;;;2.28;;
55090;SDS011;40985;53.180;5.800;2023-02-24T11:17:33;22.42;;;2.05;;
55090;SDS011;40985;53.180;5.800;2023-02-24T11:20:46;24.73;;;2.58;;
55090;SDS011;40985;53.180;5.800;2023-02-24T11:22:47;29.08;;;3.45;;
55090;SDS011;40985;53.180;5.800;2023-02-24T11:25:19;29.98;;;3.50;;
55090;SDS011;40985;53.180;5.800;2023-02-24T11:28:17;23.90;;;2.35;;
55090;SDS011;40985;53.180;5.800;2023-02-24T11:34:03;12.50;;;0.82;;
55090;SDS011;40985;53.180;5.800;2023-02-24T11:42:15;16.23;;;2.22;;
55090;SDS011;40985;53.180;5.800;2023-02-24T11:47:50;14.55;;;1.10;;
55090;SDS011;40985;53.180;5.800;2023-02-24T11:50:25;20.23;;;1.52;;
55090;SDS011;40985;53.180;5.800;2023-02-24T11:52:54;15.93;;;1.75;;
55090;SDS011;40985;53.180;5.800;2023-02-24T11:55:28;14.85;;;1.30;;
55090;SDS011;40985;53.180;5.800;2023-02-24T11:58:06;15.65;;;1.08;;
55090;SDS011;40985;53.180;5.800;2023-02-24T12:01:00;17.70;;;1.33;;
55090;SDS011;40985;53.180;5.800;2023-02-24T12:03:51;12.77;;;0.82;;
55090;SDS011;40985;53.180;5.800;2023-02-24T12:06:19;13.52;;;2.65;;
55090;SDS011;40985;53.180;5.800;2023-02-24T12:08:54;15.93;;;0.90;;
55090;SDS011;40985;53.180;5.800;2023-02-24T12:14:58;12.40;;;0.77;;
55090;SDS011;40985;53.180;5.800;2023-02-24T12:19:47;17.27;;;2.17;;
55090;SDS011;40985;53.180;5.800;2023-02-24T12:22:18;15.20;;;1.40;;
55090;SDS011;40985;53.180;5.800;2023-02-24T12:24:49;13.32;;;0.82;;
55090;SDS011;40985;53.180;5.800;2023-02-24T12:44:19;6.50;;;0.82;;
55090;SDS011;40985;53.180;5.800;2023-02-24T12:47:14;7.35;;;0.95;;
55090;SDS011;40985;53.180;5.800;2023-02-24T12:49:48;6.85;;;0.50;;
55090;SDS011;40985;53.180;5.800;2023-02-24T12:52:35;6.55;;;0.30;;
55090;SDS011;40985;53.180;5.800;2023-02-24T12:57:59;5.28;;;0.45;;
55090;SDS011;40985;53.180;5.800;2023-02-24T13:00:41;5.68;;;0.20;;
55090;SDS011;40985;53.180;5.800;2023-02-24T13:03:26;5.82;;;0.20;;
55090;SDS011;40985;53.180;5.800;2023-02-24T13:11:37;9.65;;;0.43;;
55090;SDS011;40985;53.180;5.800;2023-02-24T13:14:30;10.35;;;0.63;;
55090;SDS011;40985;53.180;5.800;2023-02-24T13:19:34;10.77;;;0.63;;
55090;SDS011;40985;53.180;5.800;2023-02-24T13:24:33;12.85;;;0.63;;
55090;SDS011;40985;53.180;5.800;2023-02-24T13:27:04;11.65;;;1.00;;
55090;SDS011;40985;53.180;5.800;2023-02-24T13:29:49;16.80;;;1.73;;
55090;SDS011;40985;53.180;5.800;2023-02-24T13:35:02;8.90;;;0.50;;
55090;SDS011;40985;53.180;5.800;2023-02-24T13:37:31;6.45;;;0.50;;
55090;SDS011;40985;53.180;5.800;2023-02-24T13:39:58;11.30;;;1.30;;
55090;SDS011;40985;53.180;5.800;2023-02-24T13:42:28;13.52;;;1.00;;
55090;SDS011;40985;53.180;5.800;2023-02-24T13:45:15;16.40;;;1.20;;
55090;SDS011;40985;53.180;5.800;2023-02-24T13:50:19;20.17;;;1.00;;
55090;SDS011;40985;53.180;5.800;2023-02-24T13:53:12;17.95;;;0.90;;
55090;SDS011;40985;53.180;5.800;2023-02-24T13:58:42;13.02;;;0.90;;
55090;SDS011;40985;53.180;5.800;2023-02-24T14:01:13;13.13;;;0.80;;
55090;SDS011;40985;53.180;5.800;2023-02-24T14:03:41;20.48;;;1.98;;
55090;SDS011;40985;53.180;5.800;2023-02-24T14:06:21;12.93;;;0.68;;
55090;SDS011;40985;53.180;5.800;2023-02-24T14:08:50;10.27;;;0.40;;
55090;SDS011;40985;53.180;5.800;2023-02-24T14:11:19;7.68;;;0.40;;
55090;SDS011;40985;53.180;5.800;2023-02-24T14:13:52;4.50;;;0.40;;
55090;SDS011;40985;53.180;5.800;2023-02-24T14:16:24;12.68;;;0.98;;
55090;SDS011;40985;53.180;5.800;2023-02-24T14:18:54;8.05;;;0.30;;
55090;SDS011;40985;53.180;5.800;2023-02-24T14:21:26;10.95;;;1.23;;
55090;SDS011;40985;53.180;5.800;2023-02-24T14:23:58;8.90;;;0.40;;
55090;SDS011;40985;53.180;5.800;2023-02-24T14:26:26;10.30;;;0.50;;
55090;SDS011;40985;53.180;5.800;2023-02-24T14:28:55;11.10;;;0.52;;
55090;SDS011;40985;53.180;5.800;2023-02-24T14:31:24;13.15;;;0.63;;
55090;SDS011;40985;53.180;5.800;2023-02-24T14:33:58;13.88;;;0.75;;
55090;SDS011;40985;53.180;5.800;2023-02-24T14:36:27;12.02;;;0.55;;
55090;SDS011;40985;53.180;5.800;2023-02-24T14:39:14;11.82;;;0.77;;
55090;SDS011;40985;53.180;5.800;2023-02-24T14:41:42;16.42;;;1.60;;
55090;SDS011;40985;53.180;5.800;2023-02-24T14:46:49;12.38;;;1.00;;
55090;SDS011;40985;53.180;5.800;2023-02-24T14:49:18;11.00;;;0.85;;
55090;SDS011;40985;53.180;5.800;2023-02-24T14:51:53;7.90;;;0.30;;
55090;SDS011;40985;53.180;5.800;2023-02-24T14:54:47;7.20;;;0.50;;
55090;SDS011;40985;53.180;5.800;2023-02-24T14:57:16;10.90;;;0.68;;
55090;SDS011;40985;53.180;5.800;2023-02-24T14:59:47;20.60;;;2.15;;
55090;SDS011;40985;53.180;5.800;2023-02-24T15:02:20;18.00;;;1.58;;
55090;SDS011;40985;53.180;5.800;2023-02-24T15:04:53;18.50;;;0.95;;
55090;SDS011;40985;53.180;5.800;2023-02-24T15:07:20;12.15;;;1.30;;
55090;SDS011;40985;53.180;5.800;2023-02-24T15:09:49;15.35;;;1.70;;
55090;SDS011;40985;53.180;5.800;2023-02-24T15:14:56;15.70;;;0.80;;
55090;SDS011;40985;53.180;5.800;2023-02-24T15:17:39;15.15;;;1.30;;
55090;SDS011;40985;53.180;5.800;2023-02-24T15:22:50;14.52;;;1.05;;
55090;SDS011;40985;53.180;5.800;2023-02-24T15:25:17;23.58;;;2.97;;
55090;SDS011;40985;53.180;5.800;2023-02-24T15:27:57;16.98;;;1.25;;
55090;SDS011;40985;53.180;5.800;2023-02-24T15:30:29;12.70;;;0.70;;
55090;SDS011;40985;53.180;5.800;2023-02-24T15:33:06;13.23;;;1.35;;
55090;SDS011;40985;53.180;5.800;2023-02-24T15:35:46;17.85;;;0.98;;
55090;SDS011;40985;53.180;5.800;2023-02-24T15:38:31;12.50;;;0.80;;
55090;SDS011;40985;53.180;5.800;2023-02-24T15:41:02;13.10;;;1.08;;
55090;SDS011;40985;53.180;5.800;2023-02-24T15:43:33;14.27;;;1.77;;
55090;SDS011;40985;53.180;5.800;2023-02-24T15:48:58;17.95;;;1.30;;
55090;SDS011;40985;53.180;5.800;2023-02-24T15:54:17;16.60;;;2.22;;
55090;SDS011;40985;53.180;5.800;2023-02-24T15:56:46;16.23;;;0.95;;
55090;SDS011;40985;53.180;5.800;2023-02-24T15:59:13;18.70;;;1.70;;
55090;SDS011;40985;53.180;5.800;2023-02-24T16:01:40;17.73;;;1.17;;
55090;SDS011;40985;53.180;5.800;2023-02-24T16:04:06;17.98;;;1.73;;
55090;SDS011;40985;53.180;5.800;2023-02-24T16:06:33;13.10;;;1.48;;
55090;SDS011;40985;53.180;5.800;2023-02-24T16:09:06;18.20;;;1.47;;
55090;SDS011;40985;53.180;5.800;2023-02-24T16:11:37;16.77;;;0.85;;
55090;SDS011;40985;53.180;5.800;2023-02-24T16:14:07;10.68;;;0.80;;
55090;SDS011;40985;53.180;5.800;2023-02-24T16:16:38;13.68;;;1.30;;
55090;SDS011;40985;53.180;5.800;2023-02-24T16:19:05;15.70;;;1.15;;
55090;SDS011;40985;53.180;5.800;2023-02-24T16:21:31;24.63;;;3.00;;
55090;SDS011;40985;53.180;5.800;2023-02-24T16:23:57;20.85;;;2.63;;
55090;SDS011;40985;53.180;5.800;2023-02-24T16:26:22;18.08;;;2.92;;
55090;SDS011;40985;53.180;5.800;2023-02-24T16:28:52;27.77;;;3.53;;
55090;SDS011;40985;53.180;5.800;2023-02-24T16:31:19;28.13;;;3.33;;
55090;SDS011;40985;53.180;5.800;2023-02-24T16:33:46;26.38;;;2.85;;
55090;SDS011;40985;53.180;5.800;2023-02-24T16:36:12;23.20;;;2.78;;
55090;SDS011;40985;53.180;5.800;2023-02-24T16:38:38;26.00;;;3.05;;
55090;SDS011;40985;53.180;5.800;2023-02-24T16:41:04;33.72;;;4.68;;
55090;SDS011;40985;53.180;5.800;2023-02-24T16:43:29;23.33;;;2.85;;
55090;SDS011;40985;53.180;5.800;2023-02-24T16:46:02;24.92;;;3.00;;
55090;SDS011;40985;53.180;5.800;2023-02-24T16:48:30;26.60;;;2.92;;
55090;SDS011;40985;53.180;5.800;2023-02-24T16:51:02;26.77;;;4.10;;
55090;SDS011;40985;53.180;5.800;2023-02-24T16:53:29;29.80;;;4.35;;
55090;SDS011;40985;53.180;5.800;2023-02-24T16:55:55;31.63;;;4.15;;
55090;SDS011;40985;53.180;5.800;2023-02-24T16:58:21;24.23;;;5.35;;
55090;SDS011;40985;53.180;5.800;2023-02-24T17:00:47;30.63;;;3.40;;
55090;SDS011;40985;53.180;5.800;2023-02-24T17:03:20;32.45;;;3.88;;
55090;SDS011;40985;53.180;5.800;2023-02-24T17:05:49;25.48;;;2.20;;
55090;SDS011;40985;53.180;5.800;2023-02-24T17:08:15;20.60;;;2.22;;
55090;SDS011;40985;53.180;5.800;2023-02-24T17:10:41;23.08;;;2.38;;
55090;SDS011;40985;53.180;5.800;2023-02-24T17:13:11;18.92;;;1.50;;
55090;SDS011;40985;53.180;5.800;2023-02-24T17:15:42;19.52;;;1.38;;
55090;SDS011;40985;53.180;5.800;2023-02-24T17:18:08;22.88;;;1.55;;
55090;SDS011;40985;53.180;5.800;2023-02-24T17:20:36;15.02;;;1.63;;
55090;SDS011;40985;53.180;5.800;2023-02-24T17:23:03;14.30;;;1.65;;
55090;SDS011;40985;53.180;5.800;2023-02-24T17:25:29;14.30;;;1.90;;
55090;SDS011;40985;53.180;5.800;2023-02-24T17:27:56;20.63;;;2.17;;
55090;SDS011;40985;53.180;5.800;2023-02-24T17:30:25;21.00;;;1.80;;
55090;SDS011;40985;53.180;5.800;2023-02-24T17:32:55;28.40;;;2.08;;
55090;SDS011;40985;53.180;5.800;2023-02-24T17:35:21;21.42;;;2.10;;
55090;SDS011;40985;53.180;5.800;2023-02-24T17:37:47;25.52;;;1.70;;
55090;SDS011;40985;53.180;5.800;2023-02-24T17:40:13;22.23;;;2.75;;
55090;SDS011;40985;53.180;5.800;2023-02-24T17:42:39;21.15;;;1.98;;
55090;SDS011;40985;53.180;5.800;2023-02-24T17:45:06;22.15;;;1.58;;
55090;SDS011;40985;53.180;5.800;2023-02-24T17:47:32;13.70;;;0.60;;
55090;SDS011;40985;53.180;5.800;2023-02-24T17:49:58;11.05;;;0.80;;
55090;SDS011;40985;53.180;5.800;2023-02-24T17:52:24;10.90;;;0.88;;
55090;SDS011;40985;53.180;5.800;2023-02-24T17:54:50;17.23;;;0.77;;